SJY162 WAMG-WIII
Flight info
| Callsign | SJY162 |
|---|---|
| Flight time | 2h 29m |
| Altitude | 36000 |
| Route | OBDEX T14 AKSOX |
| Aircraft | B738/M-SDE2E3FGHIRWXY/LB1 |
Departure
| Time | 2026-04-24 11:32 |
|---|---|
| Airport | Jalaluddin Airport (WAMG) |
Arrival
| Time | 2026-04-24 14:02 |
|---|---|
| Airport | Soekarno-Hatta International Airport (WIII) |
| Time | Latitude | Longitude | Altitude | Speed | Heading |
|---|---|---|---|---|---|
| 2026-04-24 11:04 | 0.64009 | 122.84468 | 133 ft | 0 kts | 7° |
| 2026-04-24 11:23 | 0.64007 | 122.84468 | 133 ft | 1 kts | 7° |
| 2026-04-24 11:24 | 0.63993 | 122.84467 | 133 ft | 2 kts | 6° |
| 2026-04-24 11:24 | 0.63978 | 122.84465 | 133 ft | 2 kts | 6° |
| 2026-04-24 11:24 | 0.63964 | 122.84463 | 133 ft | 2 kts | 7° |
| 2026-04-24 11:24 | 0.63951 | 122.84462 | 133 ft | 1 kts | 7° |
| 2026-04-24 11:25 | 0.63943 | 122.84463 | 133 ft | 1 kts | 307° |
| 2026-04-24 11:25 | 0.63941 | 122.84474 | 133 ft | 2 kts | 265° |
| 2026-04-24 11:25 | 0.63940 | 122.84489 | 133 ft | 1 kts | 281° |
| 2026-04-24 11:25 | 0.63940 | 122.84493 | 133 ft | 0 kts | 280° |
| 2026-04-24 11:27 | 0.63940 | 122.84488 | 133 ft | 2 kts | 278° |
| 2026-04-24 11:27 | 0.63943 | 122.84466 | 133 ft | 3 kts | 277° |
| 2026-04-24 11:28 | 0.63947 | 122.84429 | 133 ft | 7 kts | 277° |
| 2026-04-24 11:28 | 0.63953 | 122.84382 | 133 ft | 6 kts | 275° |
| 2026-04-24 11:28 | 0.63941 | 122.84351 | 133 ft | 4 kts | 214° |
| 2026-04-24 11:28 | 0.63896 | 122.84341 | 133 ft | 7 kts | 188° |
| 2026-04-24 11:29 | 0.63847 | 122.84335 | 133 ft | 7 kts | 187° |
| 2026-04-24 11:29 | 0.63796 | 122.84321 | 133 ft | 5 kts | 227° |
| 2026-04-24 11:29 | 0.63794 | 122.84288 | 133 ft | 6 kts | 277° |
| 2026-04-24 11:29 | 0.63802 | 122.84223 | 133 ft | 10 kts | 277° |
| 2026-04-24 11:30 | 0.63812 | 122.84146 | 133 ft | 11 kts | 277° |
| 2026-04-24 11:30 | 0.63822 | 122.84063 | 133 ft | 12 kts | 277° |
| 2026-04-24 11:30 | 0.63833 | 122.83975 | 133 ft | 13 kts | 277° |
| 2026-04-24 11:30 | 0.63835 | 122.83894 | 133 ft | 10 kts | 258° |
| 2026-04-24 11:31 | 0.63823 | 122.83832 | 133 ft | 5 kts | 269° |
| 2026-04-24 11:31 | 0.63838 | 122.83810 | 133 ft | 3 kts | 349° |
| 2026-04-24 11:31 | 0.63849 | 122.83822 | 133 ft | 3 kts | 88° |
| 2026-04-24 11:31 | 0.63847 | 122.83847 | 133 ft | 4 kts | 96° |
| 2026-04-24 11:32 | 0.63818 | 122.84085 | 133 ft | 76 kts | 97° |
| 2026-04-24 11:32 | 0.63719 | 122.84878 | 134 ft | 151 kts | 97° |
| 2026-04-24 11:32 | 0.63570 | 122.86063 | 474 ft | 181 kts | 97° |
| 2026-04-24 11:32 | 0.63417 | 122.87272 | 1302 ft | 182 kts | 98° |
| 2026-04-24 11:33 | 0.62987 | 122.88417 | 2048 ft | 180 kts | 131° |
| 2026-04-24 11:33 | 0.62135 | 122.88964 | 2598 ft | 173 kts | 172° |
| 2026-04-24 11:33 | 0.61016 | 122.88745 | 3228 ft | 165 kts | 220° |
| 2026-04-24 11:33 | 0.60452 | 122.87799 | 3737 ft | 163 kts | 265° |
| 2026-04-24 11:34 | 0.60640 | 122.86697 | 4289 ft | 164 kts | 287° |
| 2026-04-24 11:34 | 0.61018 | 122.85523 | 4519 ft | 190 kts | 287° |
| 2026-04-24 11:34 | 0.61409 | 122.84209 | 4884 ft | 209 kts | 286° |
| 2026-04-24 11:34 | 0.61834 | 122.82742 | 5194 ft | 234 kts | 286° |
| 2026-04-24 11:35 | 0.62299 | 122.81130 | 5821 ft | 248 kts | 286° |
| 2026-04-24 11:35 | 0.62712 | 122.79417 | 6370 ft | 266 kts | 275° |
| 2026-04-24 11:35 | 0.62475 | 122.77584 | 7101 ft | 276 kts | 255° |
| 2026-04-24 11:35 | 0.61959 | 122.75740 | 7944 ft | 281 kts | 256° |
| 2026-04-24 11:36 | 0.61485 | 122.73854 | 8783 ft | 286 kts | 257° |
| 2026-04-24 11:36 | 0.61010 | 122.71945 | 9616 ft | 290 kts | 257° |
| 2026-04-24 11:36 | 0.60522 | 122.69996 | 10412 ft | 296 kts | 257° |
| 2026-04-24 11:36 | 0.60014 | 122.67953 | 10780 ft | 317 kts | 257° |
| 2026-04-24 11:37 | 0.59462 | 122.65726 | 11015 ft | 342 kts | 257° |
| 2026-04-24 11:37 | 0.58953 | 122.63682 | 11470 ft | 354 kts | 257° |
| 2026-04-24 11:37 | 0.58321 | 122.61140 | 12256 ft | 361 kts | 257° |
| 2026-04-24 11:37 | 0.57720 | 122.58720 | 13018 ft | 367 kts | 257° |
| 2026-04-24 11:38 | 0.57105 | 122.56246 | 13788 ft | 371 kts | 257° |
| 2026-04-24 11:38 | 0.56490 | 122.53770 | 14538 ft | 376 kts | 257° |
| 2026-04-24 11:38 | 0.55879 | 122.51310 | 15258 ft | 380 kts | 257° |
| 2026-04-24 11:38 | 0.55376 | 122.49283 | 15830 ft | 384 kts | 257° |
| 2026-04-24 11:39 | 0.53991 | 122.43707 | 17312 ft | 393 kts | 257° |
| 2026-04-24 11:39 | 0.53340 | 122.41084 | 17966 ft | 397 kts | 257° |
| 2026-04-24 11:39 | 0.52670 | 122.38386 | 18615 ft | 401 kts | 257° |
| 2026-04-24 11:40 | 0.51996 | 122.35695 | 19241 ft | 406 kts | 257° |
| 2026-04-24 11:40 | 0.51250 | 122.33046 | 19842 ft | 410 kts | 255° |
| 2026-04-24 11:40 | 0.50430 | 122.30315 | 20455 ft | 414 kts | 255° |
| 2026-04-24 11:40 | 0.49615 | 122.27560 | 21040 ft | 418 kts | 255° |
| 2026-04-24 11:41 | 0.48800 | 122.24766 | 21607 ft | 422 kts | 255° |
| 2026-04-24 11:41 | 0.47972 | 122.21930 | 22161 ft | 426 kts | 255° |
| 2026-04-24 11:41 | 0.47151 | 122.19120 | 22689 ft | 430 kts | 255° |
| 2026-04-24 11:41 | 0.46315 | 122.16256 | 23210 ft | 434 kts | 255° |
| 2026-04-24 11:42 | 0.45472 | 122.13367 | 23718 ft | 437 kts | 255° |
| 2026-04-24 11:42 | 0.44631 | 122.10483 | 24210 ft | 441 kts | 255° |
| 2026-04-24 11:42 | 0.43774 | 122.07543 | 24694 ft | 445 kts | 255° |
| 2026-04-24 11:42 | 0.42909 | 122.04574 | 25169 ft | 448 kts | 255° |
| 2026-04-24 11:43 | 0.42046 | 122.01614 | 25627 ft | 451 kts | 255° |
| 2026-04-24 11:43 | 0.41180 | 121.98642 | 26072 ft | 455 kts | 255° |
| 2026-04-24 11:43 | 0.40302 | 121.95631 | 26507 ft | 458 kts | 255° |
| 2026-04-24 11:43 | 0.39409 | 121.92567 | 26934 ft | 461 kts | 255° |
| 2026-04-24 11:44 | 0.38522 | 121.89523 | 27346 ft | 464 kts | 255° |
| 2026-04-24 11:44 | 0.37670 | 121.86600 | 27729 ft | 467 kts | 254° |
| 2026-04-24 11:44 | 0.36750 | 121.83443 | 28133 ft | 470 kts | 254° |
| 2026-04-24 11:44 | 0.35878 | 121.80450 | 28504 ft | 473 kts | 254° |
| 2026-04-24 11:45 | 0.34889 | 121.77286 | 28885 ft | 476 kts | 251° |
| 2026-04-24 11:45 | 0.33788 | 121.74207 | 29251 ft | 479 kts | 250° |
| 2026-04-24 11:45 | 0.32643 | 121.71077 | 29607 ft | 482 kts | 250° |
| 2026-04-24 11:45 | 0.31516 | 121.67919 | 29951 ft | 485 kts | 251° |
| 2026-04-24 11:46 | 0.30390 | 121.64717 | 30286 ft | 487 kts | 251° |
| 2026-04-24 11:46 | 0.29271 | 121.61529 | 30593 ft | 490 kts | 251° |
| 2026-04-24 11:46 | 0.28149 | 121.58337 | 31130 ft | 486 kts | 251° |
| 2026-04-24 11:46 | 0.27034 | 121.55162 | 31613 ft | 485 kts | 251° |
| 2026-04-24 11:47 | 0.25921 | 121.51986 | 32025 ft | 484 kts | 251° |
| 2026-04-24 11:47 | 0.24825 | 121.48856 | 32438 ft | 483 kts | 250° |
| 2026-04-24 11:47 | 0.23724 | 121.45712 | 32832 ft | 482 kts | 250° |
| 2026-04-24 11:47 | 0.22615 | 121.42542 | 33214 ft | 481 kts | 250° |
| 2026-04-24 11:48 | 0.21515 | 121.39396 | 33581 ft | 480 kts | 250° |
| 2026-04-24 11:48 | 0.20425 | 121.36282 | 33933 ft | 480 kts | 250° |
| 2026-04-24 11:48 | 0.19337 | 121.33167 | 34274 ft | 479 kts | 250° |
| 2026-04-24 11:48 | 0.18251 | 121.30062 | 34597 ft | 478 kts | 250° |
| 2026-04-24 11:49 | 0.17153 | 121.26923 | 34914 ft | 477 kts | 250° |
| 2026-04-24 11:49 | 0.16071 | 121.23829 | 35215 ft | 476 kts | 250° |
| 2026-04-24 11:49 | 0.14976 | 121.20696 | 35509 ft | 476 kts | 250° |
| 2026-04-24 11:49 | 0.13893 | 121.17596 | 35777 ft | 475 kts | 250° |
| 2026-04-24 11:50 | 0.12821 | 121.14532 | 35889 ft | 479 kts | 250° |
| 2026-04-24 11:50 | 0.11733 | 121.11420 | 35885 ft | 484 kts | 250° |
| 2026-04-24 11:50 | 0.09502 | 121.05035 | 35885 ft | 493 kts | 251° |
| 2026-04-24 11:51 | 0.07253 | 120.98602 | 35885 ft | 493 kts | 251° |
| 2026-04-24 11:51 | 0.05027 | 120.92232 | 35885 ft | 492 kts | 251° |
| 2026-04-24 11:52 | 0.02785 | 120.85820 | 35885 ft | 491 kts | 251° |
| 2026-04-24 11:52 | 0.00553 | 120.79433 | 35885 ft | 492 kts | 251° |
| 2026-04-24 11:53 | -0.01687 | 120.73023 | 35882 ft | 492 kts | 251° |
| 2026-04-24 11:53 | -0.03934 | 120.66594 | 35879 ft | 492 kts | 251° |
| 2026-04-24 11:54 | -0.06173 | 120.60191 | 35875 ft | 492 kts | 251° |
| 2026-04-24 11:54 | -0.08415 | 120.53773 | 35871 ft | 492 kts | 251° |
| 2026-04-24 11:55 | -0.10648 | 120.47385 | 35867 ft | 492 kts | 251° |
| 2026-04-24 11:55 | -0.12883 | 120.40992 | 35884 ft | 491 kts | 251° |
| 2026-04-24 11:56 | -0.15120 | 120.34596 | 35885 ft | 492 kts | 251° |
| 2026-04-24 11:56 | -0.17318 | 120.28306 | 35885 ft | 492 kts | 251° |
| 2026-04-24 11:57 | -0.19561 | 120.21886 | 35885 ft | 492 kts | 251° |
| 2026-04-24 11:57 | -0.21768 | 120.15575 | 35885 ft | 492 kts | 251° |
| 2026-04-24 11:58 | -0.24029 | 120.09104 | 35885 ft | 492 kts | 251° |
| 2026-04-24 11:58 | -0.26135 | 120.03080 | 35885 ft | 492 kts | 251° |
| 2026-04-24 11:59 | -0.28447 | 119.96465 | 35885 ft | 492 kts | 251° |
| 2026-04-24 11:59 | -0.30674 | 119.90093 | 35885 ft | 492 kts | 251° |
| 2026-04-24 12:00 | -0.32906 | 119.83705 | 35885 ft | 492 kts | 251° |
| 2026-04-24 12:00 | -0.35137 | 119.77323 | 35885 ft | 492 kts | 251° |
| 2026-04-24 12:01 | -0.37396 | 119.70859 | 35885 ft | 492 kts | 251° |
| 2026-04-24 12:01 | -0.39626 | 119.64478 | 35885 ft | 492 kts | 251° |
| 2026-04-24 12:02 | -0.41868 | 119.58062 | 35885 ft | 492 kts | 251° |
| 2026-04-24 12:02 | -0.44110 | 119.51647 | 35885 ft | 492 kts | 251° |
| 2026-04-24 12:03 | -0.46287 | 119.45417 | 35885 ft | 492 kts | 251° |
| 2026-04-24 12:03 | -0.48530 | 119.38998 | 35885 ft | 492 kts | 251° |
| 2026-04-24 12:04 | -0.50787 | 119.32539 | 35885 ft | 492 kts | 251° |
| 2026-04-24 12:04 | -0.53007 | 119.26183 | 35885 ft | 492 kts | 251° |
| 2026-04-24 12:05 | -0.55259 | 119.19740 | 35885 ft | 492 kts | 251° |
| 2026-04-24 12:05 | -0.57485 | 119.13368 | 35885 ft | 492 kts | 251° |
| 2026-04-24 12:06 | -0.59724 | 119.06960 | 35885 ft | 492 kts | 251° |
| 2026-04-24 12:06 | -0.61956 | 119.00571 | 35885 ft | 492 kts | 251° |
| 2026-04-24 12:07 | -0.64197 | 118.94156 | 35885 ft | 492 kts | 250° |
| 2026-04-24 12:07 | -0.66436 | 118.87747 | 35885 ft | 492 kts | 250° |
| 2026-04-24 12:08 | -0.68675 | 118.81337 | 35885 ft | 491 kts | 250° |
| 2026-04-24 12:08 | -0.70922 | 118.74904 | 35885 ft | 490 kts | 250° |
| 2026-04-24 12:09 | -0.73147 | 118.68534 | 35885 ft | 490 kts | 250° |
| 2026-04-24 12:09 | -0.75389 | 118.62114 | 35885 ft | 490 kts | 250° |
| 2026-04-24 12:10 | -0.77642 | 118.55663 | 35885 ft | 490 kts | 250° |
| 2026-04-24 12:11 | -0.80998 | 118.46053 | 35885 ft | 490 kts | 250° |
| 2026-04-24 12:11 | -0.83244 | 118.39621 | 35885 ft | 490 kts | 250° |
| 2026-04-24 12:12 | -0.85478 | 118.33221 | 35885 ft | 490 kts | 250° |
| 2026-04-24 12:12 | -0.87713 | 118.26822 | 35885 ft | 490 kts | 250° |
| 2026-04-24 12:13 | -0.89955 | 118.20402 | 35885 ft | 490 kts | 250° |
| 2026-04-24 12:13 | -0.92192 | 118.13995 | 35885 ft | 490 kts | 250° |
| 2026-04-24 12:14 | -0.94439 | 118.07558 | 35885 ft | 490 kts | 250° |
| 2026-04-24 12:14 | -0.96674 | 118.01157 | 35885 ft | 490 kts | 250° |
| 2026-04-24 12:15 | -0.98920 | 117.94722 | 35885 ft | 490 kts | 250° |
| 2026-04-24 12:15 | -1.01148 | 117.88338 | 35885 ft | 489 kts | 249° |
| 2026-04-24 12:16 | -1.03390 | 117.81913 | 35885 ft | 489 kts | 249° |
| 2026-04-24 12:16 | -1.05620 | 117.75524 | 35885 ft | 488 kts | 249° |
| 2026-04-24 12:17 | -1.07843 | 117.69153 | 35885 ft | 488 kts | 249° |
| 2026-04-24 12:17 | -1.10074 | 117.62759 | 35885 ft | 487 kts | 249° |
| 2026-04-24 12:18 | -1.12296 | 117.56391 | 35885 ft | 487 kts | 249° |
| 2026-04-24 12:18 | -1.14520 | 117.50019 | 35885 ft | 487 kts | 249° |
| 2026-04-24 12:19 | -1.16742 | 117.43652 | 35885 ft | 487 kts | 249° |
| 2026-04-24 12:19 | -1.18952 | 117.37314 | 35885 ft | 487 kts | 249° |
| 2026-04-24 12:20 | -1.21185 | 117.30913 | 35885 ft | 487 kts | 249° |
| 2026-04-24 12:20 | -1.23403 | 117.24553 | 35885 ft | 487 kts | 249° |
| 2026-04-24 12:21 | -1.25615 | 117.18209 | 35885 ft | 487 kts | 249° |
| 2026-04-24 12:21 | -1.27839 | 117.11832 | 35885 ft | 487 kts | 249° |
| 2026-04-24 12:22 | -1.30064 | 117.05450 | 35885 ft | 487 kts | 250° |
| 2026-04-24 12:22 | -1.32279 | 116.99097 | 35885 ft | 488 kts | 250° |
| 2026-04-24 12:23 | -1.34509 | 116.92701 | 35885 ft | 488 kts | 250° |
| 2026-04-24 12:23 | -1.36739 | 116.86304 | 35885 ft | 488 kts | 250° |
| 2026-04-24 12:24 | -1.38966 | 116.79916 | 35885 ft | 488 kts | 250° |
| 2026-04-24 12:24 | -1.41193 | 116.73524 | 35885 ft | 488 kts | 250° |
| 2026-04-24 12:25 | -1.43414 | 116.67152 | 35885 ft | 488 kts | 250° |
| 2026-04-24 12:25 | -1.45632 | 116.60788 | 35885 ft | 488 kts | 250° |
| 2026-04-24 12:26 | -1.47870 | 116.54365 | 35885 ft | 488 kts | 250° |
| 2026-04-24 12:26 | -1.50096 | 116.47977 | 35885 ft | 488 kts | 250° |
| 2026-04-24 12:27 | -1.52320 | 116.41590 | 35885 ft | 488 kts | 250° |
| 2026-04-24 12:27 | -1.54546 | 116.35201 | 35885 ft | 488 kts | 250° |
| 2026-04-24 12:28 | -1.56762 | 116.28838 | 35885 ft | 488 kts | 250° |
| 2026-04-24 12:28 | -1.58994 | 116.22428 | 35885 ft | 488 kts | 250° |
| 2026-04-24 12:29 | -1.61216 | 116.16047 | 35885 ft | 488 kts | 250° |
| 2026-04-24 12:29 | -1.63431 | 116.09685 | 35885 ft | 488 kts | 250° |
| 2026-04-24 12:30 | -1.65641 | 116.03337 | 35885 ft | 488 kts | 250° |
| 2026-04-24 12:30 | -1.68661 | 115.97400 | 35887 ft | 486 kts | 234° |
| 2026-04-24 12:31 | -1.72329 | 115.91934 | 35885 ft | 487 kts | 236° |
| 2026-04-24 12:31 | -1.75928 | 115.86198 | 35885 ft | 486 kts | 237° |
| 2026-04-24 12:32 | -1.79489 | 115.80512 | 35885 ft | 486 kts | 237° |
| 2026-04-24 12:32 | -1.83048 | 115.74803 | 35885 ft | 486 kts | 237° |
| 2026-04-24 12:33 | -1.86626 | 115.69045 | 35885 ft | 486 kts | 237° |
| 2026-04-24 12:33 | -1.90184 | 115.63314 | 35885 ft | 486 kts | 237° |
| 2026-04-24 12:34 | -1.93729 | 115.57599 | 35885 ft | 486 kts | 237° |
| 2026-04-24 12:34 | -1.97273 | 115.51884 | 35885 ft | 486 kts | 237° |
| 2026-04-24 12:35 | -2.00829 | 115.46146 | 35885 ft | 486 kts | 237° |
| 2026-04-24 12:35 | -2.04376 | 115.40423 | 35885 ft | 486 kts | 237° |
| 2026-04-24 12:36 | -2.07949 | 115.34656 | 35885 ft | 486 kts | 237° |
| 2026-04-24 12:36 | -2.10577 | 115.30416 | 35885 ft | 486 kts | 237° |
| 2026-04-24 12:37 | -2.14363 | 115.24305 | 35885 ft | 486 kts | 237° |
| 2026-04-24 12:37 | -2.17897 | 115.18601 | 35885 ft | 486 kts | 237° |
| 2026-04-24 12:38 | -2.21456 | 115.12856 | 35885 ft | 489 kts | 237° |
| 2026-04-24 12:38 | -2.25052 | 115.07048 | 35885 ft | 492 kts | 237° |
| 2026-04-24 12:39 | -2.32274 | 114.95386 | 35885 ft | 497 kts | 237° |
| 2026-04-24 12:40 | -2.35903 | 114.89523 | 35878 ft | 498 kts | 237° |
| 2026-04-24 12:40 | -2.39521 | 114.83679 | 35872 ft | 497 kts | 237° |
| 2026-04-24 12:41 | -2.43139 | 114.77834 | 35865 ft | 497 kts | 237° |
| 2026-04-24 12:41 | -2.46773 | 114.71961 | 35859 ft | 497 kts | 237° |
| 2026-04-24 12:42 | -2.50389 | 114.66119 | 35886 ft | 496 kts | 237° |
| 2026-04-24 12:42 | -2.54018 | 114.60254 | 35885 ft | 497 kts | 237° |
| 2026-04-24 12:43 | -2.57624 | 114.54424 | 35885 ft | 497 kts | 237° |
| 2026-04-24 12:43 | -2.61259 | 114.48548 | 35885 ft | 497 kts | 237° |
| 2026-04-24 12:44 | -2.64872 | 114.42707 | 35885 ft | 497 kts | 237° |
| 2026-04-24 12:44 | -2.68498 | 114.36842 | 35885 ft | 497 kts | 237° |
| 2026-04-24 12:45 | -2.72136 | 114.30959 | 35885 ft | 496 kts | 237° |
| 2026-04-24 12:45 | -2.75740 | 114.25131 | 35885 ft | 497 kts | 237° |
| 2026-04-24 12:46 | -2.79381 | 114.19241 | 35885 ft | 497 kts | 237° |
| 2026-04-24 12:46 | -2.82985 | 114.13409 | 35885 ft | 497 kts | 237° |
| 2026-04-24 12:47 | -2.86626 | 114.07517 | 35885 ft | 497 kts | 237° |
| 2026-04-24 12:47 | -2.90226 | 114.01691 | 35885 ft | 496 kts | 237° |
| 2026-04-24 12:48 | -2.93847 | 113.95830 | 35885 ft | 495 kts | 237° |
| 2026-04-24 12:48 | -2.97460 | 113.89980 | 35885 ft | 494 kts | 237° |
| 2026-04-24 12:49 | -3.01042 | 113.84182 | 35885 ft | 492 kts | 237° |
| 2026-04-24 12:49 | -3.04618 | 113.78390 | 35885 ft | 491 kts | 238° |
| 2026-04-24 12:50 | -3.08209 | 113.72575 | 35885 ft | 491 kts | 238° |
| 2026-04-24 12:50 | -3.11789 | 113.66774 | 35885 ft | 491 kts | 238° |
| 2026-04-24 12:51 | -3.15374 | 113.60968 | 35885 ft | 492 kts | 238° |
| 2026-04-24 12:51 | -3.18946 | 113.55181 | 35885 ft | 492 kts | 238° |
| 2026-04-24 12:52 | -3.22522 | 113.49385 | 35885 ft | 491 kts | 238° |
| 2026-04-24 12:52 | -3.26114 | 113.43562 | 35885 ft | 491 kts | 238° |
| 2026-04-24 12:53 | -3.29700 | 113.37749 | 35885 ft | 491 kts | 238° |
| 2026-04-24 12:53 | -3.33034 | 113.32344 | 35885 ft | 491 kts | 238° |
| 2026-04-24 12:54 | -3.36606 | 113.26551 | 35885 ft | 491 kts | 238° |
| 2026-04-24 12:54 | -3.40200 | 113.20722 | 35885 ft | 492 kts | 238° |
| 2026-04-24 12:55 | -3.43765 | 113.14938 | 35885 ft | 492 kts | 238° |
| 2026-04-24 12:55 | -3.47339 | 113.09140 | 35885 ft | 492 kts | 238° |
| 2026-04-24 12:56 | -3.50924 | 113.03323 | 35885 ft | 492 kts | 238° |
| 2026-04-24 12:56 | -3.54503 | 112.97513 | 35885 ft | 491 kts | 237° |
| 2026-04-24 12:57 | -3.58069 | 112.91724 | 35885 ft | 489 kts | 237° |
| 2026-04-24 12:57 | -3.61634 | 112.85938 | 35885 ft | 488 kts | 237° |
| 2026-04-24 12:58 | -3.65183 | 112.80174 | 35885 ft | 487 kts | 237° |
| 2026-04-24 12:58 | -3.68709 | 112.74448 | 35885 ft | 487 kts | 237° |
| 2026-04-24 12:59 | -3.72258 | 112.68682 | 35885 ft | 487 kts | 237° |
| 2026-04-24 12:59 | -3.75805 | 112.62918 | 35885 ft | 487 kts | 237° |
| 2026-04-24 13:00 | -3.79357 | 112.57147 | 35885 ft | 487 kts | 237° |
| 2026-04-24 13:00 | -3.82883 | 112.51415 | 35885 ft | 487 kts | 237° |
| 2026-04-24 13:01 | -3.86427 | 112.45654 | 35885 ft | 487 kts | 237° |
| 2026-04-24 13:01 | -3.89972 | 112.39889 | 35885 ft | 487 kts | 237° |
| 2026-04-24 13:02 | -3.93530 | 112.34102 | 35885 ft | 487 kts | 237° |
| 2026-04-24 13:02 | -3.97057 | 112.28367 | 35885 ft | 487 kts | 237° |
| 2026-04-24 13:03 | -4.00595 | 112.22610 | 35885 ft | 487 kts | 237° |
| 2026-04-24 13:03 | -4.04150 | 112.16826 | 35885 ft | 487 kts | 237° |
| 2026-04-24 13:04 | -4.07683 | 112.11075 | 35885 ft | 487 kts | 237° |
| 2026-04-24 13:04 | -4.11212 | 112.05331 | 35885 ft | 487 kts | 237° |
| 2026-04-24 13:05 | -4.14767 | 111.99542 | 35885 ft | 487 kts | 237° |
| 2026-04-24 13:05 | -4.18316 | 111.93761 | 35885 ft | 487 kts | 237° |
| 2026-04-24 13:06 | -4.21837 | 111.88026 | 35885 ft | 487 kts | 237° |
| 2026-04-24 13:06 | -4.25391 | 111.82236 | 35885 ft | 487 kts | 237° |
| 2026-04-24 13:07 | -4.28924 | 111.76479 | 35885 ft | 487 kts | 237° |
| 2026-04-24 13:07 | -4.32459 | 111.70718 | 35885 ft | 487 kts | 237° |
| 2026-04-24 13:08 | -4.35990 | 111.64962 | 35885 ft | 487 kts | 237° |
| 2026-04-24 13:08 | -4.39538 | 111.59176 | 35885 ft | 487 kts | 237° |
| 2026-04-24 13:09 | -4.44851 | 111.50509 | 35885 ft | 487 kts | 237° |
| 2026-04-24 13:09 | -4.48376 | 111.44759 | 35885 ft | 487 kts | 237° |
| 2026-04-24 13:10 | -4.51903 | 111.39002 | 35885 ft | 487 kts | 237° |
| 2026-04-24 13:10 | -4.55441 | 111.33227 | 35885 ft | 487 kts | 237° |
| 2026-04-24 13:11 | -4.58976 | 111.27424 | 35884 ft | 487 kts | 239° |
| 2026-04-24 13:11 | -4.61939 | 111.21341 | 35885 ft | 488 kts | 249° |
| 2026-04-24 13:12 | -4.64126 | 111.14922 | 35885 ft | 489 kts | 251° |
| 2026-04-24 13:12 | -4.66295 | 111.08484 | 35885 ft | 489 kts | 251° |
| 2026-04-24 13:13 | -4.68423 | 111.02027 | 35885 ft | 489 kts | 251° |
| 2026-04-24 13:13 | -4.70519 | 110.95585 | 35885 ft | 490 kts | 251° |
| 2026-04-24 13:14 | -4.72627 | 110.89078 | 35885 ft | 491 kts | 251° |
| 2026-04-24 13:14 | -4.74728 | 110.82570 | 35885 ft | 491 kts | 251° |
| 2026-04-24 13:15 | -4.76818 | 110.76083 | 35885 ft | 491 kts | 251° |
| 2026-04-24 13:15 | -4.78905 | 110.69599 | 35885 ft | 491 kts | 251° |
| 2026-04-24 13:16 | -4.80987 | 110.63123 | 35885 ft | 491 kts | 251° |
| 2026-04-24 13:16 | -4.83086 | 110.56594 | 35885 ft | 491 kts | 251° |
| 2026-04-24 13:17 | -4.85168 | 110.50113 | 35885 ft | 491 kts | 251° |
| 2026-04-24 13:17 | -4.87257 | 110.43607 | 35885 ft | 491 kts | 251° |
| 2026-04-24 13:18 | -4.89296 | 110.37103 | 35885 ft | 491 kts | 252° |
| 2026-04-24 13:18 | -4.91278 | 110.30571 | 35885 ft | 491 kts | 252° |
| 2026-04-24 13:19 | -4.93277 | 110.24045 | 35885 ft | 491 kts | 252° |
| 2026-04-24 13:19 | -4.95273 | 110.17524 | 35885 ft | 491 kts | 252° |
| 2026-04-24 13:20 | -4.97270 | 110.10998 | 35885 ft | 491 kts | 252° |
| 2026-04-24 13:20 | -4.99270 | 110.04462 | 35885 ft | 490 kts | 252° |
| 2026-04-24 13:21 | -5.01258 | 109.97964 | 35885 ft | 489 kts | 252° |
| 2026-04-24 13:21 | -5.03239 | 109.91486 | 35885 ft | 488 kts | 252° |
| 2026-04-24 13:22 | -5.05225 | 109.84989 | 35885 ft | 487 kts | 252° |
| 2026-04-24 13:22 | -5.07192 | 109.78552 | 35885 ft | 486 kts | 252° |
| 2026-04-24 13:23 | -5.09166 | 109.72090 | 35885 ft | 485 kts | 252° |
| 2026-04-24 13:23 | -5.10493 | 109.67744 | 35885 ft | 484 kts | 252° |
| 2026-04-24 13:24 | -5.12638 | 109.60718 | 35885 ft | 483 kts | 252° |
| 2026-04-24 13:24 | -5.14593 | 109.54314 | 35885 ft | 483 kts | 252° |
| 2026-04-24 13:25 | -5.16561 | 109.47863 | 35885 ft | 484 kts | 252° |
| 2026-04-24 13:25 | -5.18522 | 109.41431 | 35885 ft | 484 kts | 252° |
| 2026-04-24 13:26 | -5.20486 | 109.34989 | 35885 ft | 484 kts | 253° |
| 2026-04-24 13:26 | -5.22444 | 109.28561 | 35885 ft | 483 kts | 253° |
| 2026-04-24 13:27 | -5.24400 | 109.22139 | 35885 ft | 483 kts | 252° |
| 2026-04-24 13:27 | -5.26365 | 109.15685 | 35885 ft | 484 kts | 253° |
| 2026-04-24 13:28 | -5.28312 | 109.09263 | 35885 ft | 485 kts | 253° |
| 2026-04-24 13:28 | -5.29606 | 109.02669 | 35885 ft | 485 kts | 264° |
| 2026-04-24 13:29 | -5.30247 | 108.95911 | 35885 ft | 485 kts | 265° |
| 2026-04-24 13:29 | -5.30897 | 108.89208 | 35885 ft | 485 kts | 265° |
| 2026-04-24 13:30 | -5.31495 | 108.82514 | 35885 ft | 485 kts | 265° |
| 2026-04-24 13:30 | -5.32076 | 108.75806 | 35885 ft | 485 kts | 265° |
| 2026-04-24 13:31 | -5.32616 | 108.69469 | 35885 ft | 485 kts | 265° |
| 2026-04-24 13:31 | -5.33193 | 108.62628 | 35885 ft | 485 kts | 265° |
| 2026-04-24 13:32 | -5.33747 | 108.56023 | 35885 ft | 485 kts | 265° |
| 2026-04-24 13:32 | -5.34306 | 108.49326 | 35885 ft | 485 kts | 265° |
| 2026-04-24 13:33 | -5.34864 | 108.42620 | 35885 ft | 485 kts | 265° |
| 2026-04-24 13:33 | -5.35417 | 108.35957 | 35885 ft | 485 kts | 265° |
| 2026-04-24 13:34 | -5.35800 | 108.31342 | 35885 ft | 485 kts | 266° |
| 2026-04-24 13:34 | -5.36358 | 108.24605 | 35885 ft | 485 kts | 266° |
| 2026-04-24 13:35 | -5.36911 | 108.17913 | 35885 ft | 485 kts | 266° |
| 2026-04-24 13:35 | -5.37467 | 108.11190 | 35885 ft | 485 kts | 266° |
| 2026-04-24 13:36 | -5.38021 | 108.04476 | 35885 ft | 485 kts | 266° |
| 2026-04-24 13:36 | -5.38575 | 107.97742 | 35885 ft | 485 kts | 266° |
| 2026-04-24 13:37 | -5.39129 | 107.91008 | 35885 ft | 485 kts | 266° |
| 2026-04-24 13:37 | -5.39680 | 107.84300 | 35885 ft | 485 kts | 266° |
| 2026-04-24 13:38 | -5.40235 | 107.77532 | 35885 ft | 485 kts | 266° |
| 2026-04-24 13:38 | -5.40785 | 107.70819 | 35885 ft | 485 kts | 266° |
| 2026-04-24 13:39 | -5.41336 | 107.64088 | 35885 ft | 485 kts | 266° |
| 2026-04-24 13:39 | -5.41885 | 107.57372 | 35885 ft | 485 kts | 266° |
| 2026-04-24 13:40 | -5.42432 | 107.50662 | 35885 ft | 485 kts | 266° |
| 2026-04-24 13:40 | -5.42980 | 107.43930 | 35884 ft | 485 kts | 266° |
| 2026-04-24 13:41 | -5.43527 | 107.37212 | 35884 ft | 485 kts | 266° |
| 2026-04-24 13:41 | -5.44074 | 107.30483 | 35885 ft | 485 kts | 266° |
| 2026-04-24 13:42 | -5.44620 | 107.23745 | 35881 ft | 485 kts | 266° |
| 2026-04-24 13:42 | -5.45161 | 107.17072 | 35781 ft | 483 kts | 266° |
| 2026-04-24 13:43 | -5.45416 | 107.13932 | 35487 ft | 474 kts | 266° |
| 2026-04-24 13:43 | -5.45664 | 107.10868 | 35058 ft | 469 kts | 266° |
| 2026-04-24 13:43 | -5.45939 | 107.07458 | 34554 ft | 463 kts | 266° |
| 2026-04-24 13:43 | -5.46195 | 107.04292 | 33984 ft | 461 kts | 266° |
| 2026-04-24 13:44 | -5.46517 | 107.01125 | 33318 ft | 461 kts | 262° |
| 2026-04-24 13:44 | -5.47208 | 106.98019 | 32632 ft | 461 kts | 253° |
| 2026-04-24 13:44 | -5.48398 | 106.95069 | 31811 ft | 464 kts | 242° |
| 2026-04-24 13:44 | -5.50113 | 106.92398 | 30982 ft | 466 kts | 232° |
| 2026-04-24 13:45 | -5.52190 | 106.89955 | 30100 ft | 467 kts | 225° |
| 2026-04-24 13:45 | -5.54615 | 106.87888 | 29139 ft | 456 kts | 212° |
| 2026-04-24 13:45 | -5.57334 | 106.86498 | 28192 ft | 447 kts | 201° |
| 2026-04-24 13:45 | -5.60172 | 106.85404 | 27240 ft | 445 kts | 199° |
| 2026-04-24 13:46 | -5.63090 | 106.84265 | 26255 ft | 456 kts | 200° |
| 2026-04-24 13:46 | -5.65708 | 106.83213 | 25322 ft | 453 kts | 201° |
| 2026-04-24 13:46 | -5.68421 | 106.82129 | 24359 ft | 445 kts | 200° |
| 2026-04-24 13:46 | -5.71178 | 106.81042 | 23366 ft | 439 kts | 200° |
| 2026-04-24 13:47 | -5.73972 | 106.79949 | 22349 ft | 433 kts | 200° |
| 2026-04-24 13:47 | -5.76730 | 106.78872 | 21400 ft | 426 kts | 200° |
| 2026-04-24 13:47 | -5.79345 | 106.77820 | 20552 ft | 416 kts | 204° |
| 2026-04-24 13:47 | -5.81849 | 106.76449 | 19631 ft | 409 kts | 212° |
| 2026-04-24 13:48 | -5.84162 | 106.74837 | 18681 ft | 403 kts | 217° |
| 2026-04-24 13:48 | -5.86168 | 106.72948 | 17728 ft | 397 kts | 229° |
| 2026-04-24 13:48 | -5.87779 | 106.70744 | 16785 ft | 392 kts | 236° |
| 2026-04-24 13:48 | -5.89193 | 106.68433 | 15840 ft | 387 kts | 243° |
| 2026-04-24 13:49 | -5.90262 | 106.65985 | 14967 ft | 386 kts | 249° |
| 2026-04-24 13:49 | -5.91011 | 106.64063 | 14258 ft | 380 kts | 248° |
| 2026-04-24 13:49 | -5.92131 | 106.61290 | 13193 ft | 371 kts | 248° |
| 2026-04-24 13:49 | -5.93077 | 106.58954 | 12244 ft | 366 kts | 248° |
| 2026-04-24 13:50 | -5.94016 | 106.56629 | 11151 ft | 365 kts | 248° |
| 2026-04-24 13:50 | -5.94970 | 106.54300 | 10078 ft | 362 kts | 248° |
| 2026-04-24 13:50 | -5.95907 | 106.52010 | 9548 ft | 356 kts | 248° |
| 2026-04-24 13:50 | -5.96819 | 106.49775 | 9399 ft | 344 kts | 248° |
| 2026-04-24 13:51 | -5.97712 | 106.47586 | 9139 ft | 335 kts | 248° |
| 2026-04-24 13:51 | -5.98579 | 106.45460 | 8886 ft | 327 kts | 248° |
| 2026-04-24 13:51 | -5.99418 | 106.43401 | 8637 ft | 319 kts | 248° |
| 2026-04-24 13:51 | -6.00221 | 106.41431 | 8392 ft | 312 kts | 248° |
| 2026-04-24 13:52 | -6.00766 | 106.40093 | 8199 ft | 308 kts | 248° |
| 2026-04-24 13:52 | -6.01840 | 106.37457 | 7716 ft | 305 kts | 248° |
| 2026-04-24 13:52 | -6.02643 | 106.35483 | 7323 ft | 304 kts | 248° |
| 2026-04-24 13:52 | -6.03593 | 106.33633 | 6934 ft | 299 kts | 232° |
| 2026-04-24 13:53 | -6.05120 | 106.32398 | 6586 ft | 282 kts | 202° |
| 2026-04-24 13:53 | -6.06971 | 106.31979 | 6246 ft | 271 kts | 183° |
| 2026-04-24 13:53 | -6.08775 | 106.32096 | 5908 ft | 269 kts | 169° |
| 2026-04-24 13:53 | -6.10615 | 106.32446 | 5581 ft | 267 kts | 169° |
| 2026-04-24 13:54 | -6.12418 | 106.32761 | 5434 ft | 258 kts | 169° |
| 2026-04-24 13:54 | -6.14142 | 106.33064 | 5351 ft | 246 kts | 169° |
| 2026-04-24 13:54 | -6.15757 | 106.33349 | 5268 ft | 235 kts | 169° |
| 2026-04-24 13:54 | -6.17340 | 106.33628 | 5186 ft | 224 kts | 169° |
| 2026-04-24 13:55 | -6.18855 | 106.33896 | 5113 ft | 230 kts | 169° |
| 2026-04-24 13:55 | -6.20388 | 106.34323 | 5008 ft | 230 kts | 149° |
| 2026-04-24 13:55 | -6.21461 | 106.35462 | 4999 ft | 226 kts | 117° |
| 2026-04-24 13:55 | -6.22201 | 106.36865 | 4990 ft | 228 kts | 120° |
| 2026-04-24 13:56 | -6.23027 | 106.38209 | 4993 ft | 228 kts | 121° |
| 2026-04-24 13:56 | -6.23674 | 106.39646 | 4977 ft | 226 kts | 98° |
| 2026-04-24 13:56 | -6.23531 | 106.41160 | 4803 ft | 229 kts | 70° |
| 2026-04-24 13:56 | -6.22935 | 106.42590 | 4655 ft | 223 kts | 68° |
| 2026-04-24 13:57 | -6.22371 | 106.44006 | 4383 ft | 222 kts | 68° |
| 2026-04-24 13:57 | -6.21810 | 106.45407 | 4098 ft | 221 kts | 68° |
| 2026-04-24 13:57 | -6.21239 | 106.46840 | 3793 ft | 220 kts | 68° |
| 2026-04-24 13:57 | -6.20670 | 106.48269 | 3485 ft | 220 kts | 68° |
| 2026-04-24 13:58 | -6.20138 | 106.49604 | 3221 ft | 217 kts | 68° |
| 2026-04-24 13:58 | -6.19575 | 106.51018 | 2889 ft | 214 kts | 68° |
| 2026-04-24 13:58 | -6.19023 | 106.52403 | 2601 ft | 209 kts | 68° |
| 2026-04-24 13:58 | -6.18498 | 106.53720 | 2306 ft | 198 kts | 68° |
| 2026-04-24 13:59 | -6.18176 | 106.54530 | 2126 ft | 187 kts | 68° |
| 2026-04-24 13:59 | -6.17628 | 106.55904 | 1841 ft | 167 kts | 68° |
| 2026-04-24 13:59 | -6.17177 | 106.57035 | 1635 ft | 160 kts | 68° |
| 2026-04-24 13:59 | -6.16777 | 106.58041 | 1387 ft | 152 kts | 68° |
| 2026-04-24 14:00 | -6.16395 | 106.58998 | 1244 ft | 147 kts | 68° |
| 2026-04-24 14:00 | -6.16035 | 106.59903 | 1007 ft | 147 kts | 68° |
| 2026-04-24 14:00 | -6.15655 | 106.60854 | 816 ft | 146 kts | 68° |
| 2026-04-24 14:00 | -6.15292 | 106.61768 | 645 ft | 136 kts | 68° |
| 2026-04-24 14:01 | -6.14954 | 106.62613 | 447 ft | 129 kts | 68° |
| 2026-04-24 14:01 | -6.14616 | 106.63454 | 280 ft | 133 kts | 68° |
| 2026-04-24 14:01 | -6.14274 | 106.64314 | 118 ft | 135 kts | 68° |
| 2026-04-24 14:01 | -6.13930 | 106.65183 | 49 ft | 120 kts | 68° |
| 2026-04-24 14:02 | -6.13696 | 106.65768 | 48 ft | 71 kts | 68° |
| 2026-04-24 14:02 | -6.13565 | 106.66090 | 48 ft | 32 kts | 64° |
| 2026-04-24 14:02 | -6.13483 | 106.66213 | 48 ft | 17 kts | 45° |
| 2026-04-24 14:02 | -6.13410 | 106.66273 | 48 ft | 13 kts | 37° |
| 2026-04-24 14:03 | -6.13383 | 106.66293 | 48 ft | 5 kts | 37° |
| 2026-04-24 14:03 | -6.13351 | 106.66303 | 48 ft | 5 kts | 351° |
| 2026-04-24 14:03 | -6.13314 | 106.66280 | 48 ft | 7 kts | 300° |
| 2026-04-24 14:03 | -6.13321 | 106.66223 | 48 ft | 10 kts | 249° |
| 2026-04-24 14:04 | -6.13356 | 106.66136 | 48 ft | 14 kts | 248° |
| 2026-04-24 14:04 | -6.13388 | 106.66057 | 48 ft | 12 kts | 248° |
| 2026-04-24 14:04 | -6.13419 | 106.65977 | 48 ft | 13 kts | 248° |
| 2026-04-24 14:04 | -6.13446 | 106.65908 | 48 ft | 10 kts | 256° |
| 2026-04-24 14:05 | -6.13424 | 106.65857 | 48 ft | 9 kts | 328° |
| 2026-04-24 14:05 | -6.13373 | 106.65833 | 48 ft | 8 kts | 336° |
| 2026-04-24 14:05 | -6.13320 | 106.65814 | 48 ft | 9 kts | 355° |
| 2026-04-24 14:05 | -6.13285 | 106.65811 | 48 ft | 4 kts | 339° |
| 2026-04-24 14:06 | -6.13270 | 106.65793 | 48 ft | 3 kts | 292° |
| 2026-04-24 14:06 | -6.13266 | 106.65777 | 48 ft | 2 kts | 283° |
| 2026-04-24 14:06 | -6.13264 | 106.65765 | 48 ft | 1 kts | 280° |
| 2026-04-24 14:06 | -6.13263 | 106.65758 | 48 ft | 0 kts | 280° |